sensor_id;sensor_type;location;lat;lon;timestamp;P1;durP1;ratioP1;P2;durP2;ratioP2
43990;SDS011;29654;50.784;20.604;2022-09-12T00:04:27;3.67;;;2.53;;
43990;SDS011;29654;50.784;20.604;2022-09-12T00:09:30;2.30;;;2.10;;
43990;SDS011;29654;50.784;20.604;2022-09-12T00:14:34;2.10;;;2.00;;
43990;SDS011;29654;50.784;20.604;2022-09-12T00:19:37;3.25;;;2.92;;
43990;SDS011;29654;50.784;20.604;2022-09-12T00:24:42;2.75;;;2.08;;
43990;SDS011;29654;50.784;20.604;2022-09-12T00:29:55;4.15;;;2.40;;
43990;SDS011;29654;50.784;20.604;2022-09-12T00:34:57;2.50;;;2.30;;
43990;SDS011;29654;50.784;20.604;2022-09-12T00:40:02;2.85;;;2.50;;
43990;SDS011;29654;50.784;20.604;2022-09-12T00:45:07;4.05;;;2.35;;
43990;SDS011;29654;50.784;20.604;2022-09-12T00:50:21;2.83;;;2.40;;
43990;SDS011;29654;50.784;20.604;2022-09-12T00:55:26;3.25;;;2.58;;
43990;SDS011;29654;50.784;20.604;2022-09-12T01:00:34;2.95;;;2.63;;
43990;SDS011;29654;50.784;20.604;2022-09-12T01:05:38;2.90;;;2.60;;
43990;SDS011;29654;50.784;20.604;2022-09-12T01:10:44;4.38;;;2.25;;
43990;SDS011;29654;50.784;20.604;2022-09-12T01:15:49;2.80;;;2.42;;
43990;SDS011;29654;50.784;20.604;2022-09-12T01:20:55;3.55;;;2.60;;
43990;SDS011;29654;50.784;20.604;2022-09-12T01:26:34;3.30;;;2.67;;
43990;SDS011;29654;50.784;20.604;2022-09-12T01:32:11;4.15;;;2.40;;
43990;SDS011;29654;50.784;20.604;2022-09-12T01:37:24;5.20;;;2.80;;
43990;SDS011;29654;50.784;20.604;2022-09-12T01:42:35;2.53;;;2.33;;
43990;SDS011;29654;50.784;20.604;2022-09-12T01:47:48;3.20;;;2.90;;
43990;SDS011;29654;50.784;20.604;2022-09-12T01:52:56;3.70;;;2.88;;
43990;SDS011;29654;50.784;20.604;2022-09-12T01:58:04;3.38;;;2.60;;
43990;SDS011;29654;50.784;20.604;2022-09-12T02:03:14;3.03;;;2.83;;
43990;SDS011;29654;50.784;20.604;2022-09-12T02:08:21;4.22;;;2.70;;
43990;SDS011;29654;50.784;20.604;2022-09-12T02:13:30;3.42;;;3.17;;
43990;SDS011;29654;50.784;20.604;2022-09-12T02:18:42;3.63;;;2.80;;
43990;SDS011;29654;50.784;20.604;2022-09-12T02:23:49;2.90;;;2.60;;
43990;SDS011;29654;50.784;20.604;2022-09-12T02:28:58;3.33;;;2.70;;
43990;SDS011;29654;50.784;20.604;2022-09-12T02:34:06;3.78;;;2.78;;
43990;SDS011;29654;50.784;20.604;2022-09-12T02:39:17;3.20;;;2.90;;
43990;SDS011;29654;50.784;20.604;2022-09-12T02:44:20;5.18;;;3.00;;
43990;SDS011;29654;50.784;20.604;2022-09-12T02:49:26;3.90;;;3.13;;
43990;SDS011;29654;50.784;20.604;2022-09-12T02:54:29;2.97;;;2.70;;
43990;SDS011;29654;50.784;20.604;2022-09-12T02:59:32;2.92;;;2.67;;
43990;SDS011;29654;50.784;20.604;2022-09-12T03:04:45;3.38;;;2.90;;
43990;SDS011;29654;50.784;20.604;2022-09-12T03:10:02;3.83;;;2.80;;
43990;SDS011;29654;50.784;20.604;2022-09-12T03:15:17;3.08;;;2.78;;
43990;SDS011;29654;50.784;20.604;2022-09-12T03:20:37;7.20;;;3.25;;
43990;SDS011;29654;50.784;20.604;2022-09-12T03:25:47;3.78;;;3.47;;
43990;SDS011;29654;50.784;20.604;2022-09-12T03:30:56;4.80;;;4.18;;
43990;SDS011;29654;50.784;20.604;2022-09-12T03:36:01;5.70;;;3.88;;
43990;SDS011;29654;50.784;20.604;2022-09-12T03:41:04;5.03;;;4.05;;
43990;SDS011;29654;50.784;20.604;2022-09-12T03:46:07;5.22;;;4.22;;
43990;SDS011;29654;50.784;20.604;2022-09-12T03:51:11;4.15;;;3.75;;
43990;SDS011;29654;50.784;20.604;2022-09-12T03:56:13;4.50;;;3.88;;
43990;SDS011;29654;50.784;20.604;2022-09-12T04:01:18;4.90;;;4.15;;
43990;SDS011;29654;50.784;20.604;2022-09-12T04:06:22;10.05;;;4.63;;
43990;SDS011;29654;50.784;20.604;2022-09-12T04:11:25;7.45;;;5.70;;
43990;SDS011;29654;50.784;20.604;2022-09-12T04:16:27;7.70;;;5.82;;
43990;SDS011;29654;50.784;20.604;2022-09-12T04:21:32;6.72;;;5.95;;
43990;SDS011;29654;50.784;20.604;2022-09-12T04:26:35;7.63;;;6.55;;
43990;SDS011;29654;50.784;20.604;2022-09-12T04:31:38;6.85;;;6.25;;
43990;SDS011;29654;50.784;20.604;2022-09-12T04:36:42;7.78;;;6.50;;
43990;SDS011;29654;50.784;20.604;2022-09-12T04:41:44;8.85;;;7.25;;
43990;SDS011;29654;50.784;20.604;2022-09-12T04:46:47;10.70;;;7.78;;
43990;SDS011;29654;50.784;20.604;2022-09-12T04:51:52;9.38;;;7.95;;
43990;SDS011;29654;50.784;20.604;2022-09-12T04:56:56;8.48;;;7.65;;
43990;SDS011;29654;50.784;20.604;2022-09-12T05:01:59;8.85;;;7.57;;
43990;SDS011;29654;50.784;20.604;2022-09-12T05:07:03;10.68;;;9.63;;
43990;SDS011;29654;50.784;20.604;2022-09-12T05:12:06;9.88;;;8.50;;
43990;SDS011;29654;50.784;20.604;2022-09-12T05:17:09;8.80;;;7.90;;
43990;SDS011;29654;50.784;20.604;2022-09-12T05:22:13;9.60;;;8.43;;
43990;SDS011;29654;50.784;20.604;2022-09-12T05:27:16;8.10;;;7.38;;
43990;SDS011;29654;50.784;20.604;2022-09-12T05:32:20;7.93;;;7.10;;
43990;SDS011;29654;50.784;20.604;2022-09-12T05:37:24;6.50;;;5.90;;
43990;SDS011;29654;50.784;20.604;2022-09-12T05:42:28;5.00;;;4.50;;
43990;SDS011;29654;50.784;20.604;2022-09-12T05:47:31;5.60;;;5.10;;
43990;SDS011;29654;50.784;20.604;2022-09-12T05:52:35;5.63;;;5.13;;
43990;SDS011;29654;50.784;20.604;2022-09-12T05:57:38;5.90;;;5.40;;
43990;SDS011;29654;50.784;20.604;2022-09-12T06:02:40;5.80;;;5.30;;
43990;SDS011;29654;50.784;20.604;2022-09-12T06:07:45;6.28;;;5.68;;
43990;SDS011;29654;50.784;20.604;2022-09-12T06:12:48;7.90;;;4.95;;
43990;SDS011;29654;50.784;20.604;2022-09-12T06:17:51;6.28;;;5.68;;
43990;SDS011;29654;50.784;20.604;2022-09-12T06:22:55;6.60;;;5.95;;
43990;SDS011;29654;50.784;20.604;2022-09-12T06:27:57;7.07;;;5.30;;
43990;SDS011;29654;50.784;20.604;2022-09-12T06:33:00;7.53;;;6.82;;
43990;SDS011;29654;50.784;20.604;2022-09-12T06:38:04;9.48;;;5.70;;
43990;SDS011;29654;50.784;20.604;2022-09-12T06:43:07;6.00;;;5.50;;
43990;SDS011;29654;50.784;20.604;2022-09-12T06:48:11;9.30;;;6.18;;
43990;SDS011;29654;50.784;20.604;2022-09-12T06:53:15;5.47;;;4.43;;
43990;SDS011;29654;50.784;20.604;2022-09-12T06:58:17;3.90;;;3.38;;
43990;SDS011;29654;50.784;20.604;2022-09-12T07:03:20;4.40;;;4.05;;
43990;SDS011;29654;50.784;20.604;2022-09-12T07:08:25;5.18;;;3.50;;
43990;SDS011;29654;50.784;20.604;2022-09-12T07:13:31;4.03;;;3.63;;
43990;SDS011;29654;50.784;20.604;2022-09-12T07:18:36;3.42;;;3.13;;
43990;SDS011;29654;50.784;20.604;2022-09-12T07:23:45;4.40;;;3.45;;
43990;SDS011;29654;50.784;20.604;2022-09-12T07:28:52;4.68;;;3.80;;
43990;SDS011;29654;50.784;20.604;2022-09-12T07:33:57;4.93;;;3.55;;
43990;SDS011;29654;50.784;20.604;2022-09-12T07:39:01;5.55;;;3.25;;
43990;SDS011;29654;50.784;20.604;2022-09-12T07:44:05;6.45;;;3.55;;
43990;SDS011;29654;50.784;20.604;2022-09-12T07:49:08;5.20;;;3.45;;
43990;SDS011;29654;50.784;20.604;2022-09-12T07:54:14;4.05;;;3.65;;
43990;SDS011;29654;50.784;20.604;2022-09-12T07:59:17;5.50;;;3.40;;
43990;SDS011;29654;50.784;20.604;2022-09-12T08:04:20;3.90;;;3.42;;
43990;SDS011;29654;50.784;20.604;2022-09-12T08:09:24;5.07;;;4.22;;
43990;SDS011;29654;50.784;20.604;2022-09-12T08:14:27;5.43;;;3.75;;
43990;SDS011;29654;50.784;20.604;2022-09-12T08:19:30;6.07;;;3.38;;
43990;SDS011;29654;50.784;20.604;2022-09-12T08:24:34;4.40;;;3.33;;
43990;SDS011;29654;50.784;20.604;2022-09-12T08:29:39;3.72;;;3.03;;
43990;SDS011;29654;50.784;20.604;2022-09-12T08:34:42;4.32;;;3.00;;
43990;SDS011;29654;50.784;20.604;2022-09-12T08:39:47;3.47;;;3.15;;
43990;SDS011;29654;50.784;20.604;2022-09-12T08:44:59;3.70;;;3.40;;
43990;SDS011;29654;50.784;20.604;2022-09-12T08:50:13;2.72;;;2.53;;
43990;SDS011;29654;50.784;20.604;2022-09-12T08:55:24;3.42;;;2.85;;
43990;SDS011;29654;50.784;20.604;2022-09-12T09:00:36;3.28;;;2.50;;
43990;SDS011;29654;50.784;20.604;2022-09-12T09:05:49;3.30;;;2.72;;
43990;SDS011;29654;50.784;20.604;2022-09-12T09:11:05;4.32;;;2.60;;
43990;SDS011;29654;50.784;20.604;2022-09-12T09:16:24;5.82;;;2.75;;
43990;SDS011;29654;50.784;20.604;2022-09-12T09:21:34;2.42;;;2.20;;
43990;SDS011;29654;50.784;20.604;2022-09-12T09:26:47;3.70;;;2.40;;
43990;SDS011;29654;50.784;20.604;2022-09-12T09:31:55;3.55;;;2.35;;
43990;SDS011;29654;50.784;20.604;2022-09-12T09:37:05;3.35;;;2.30;;
43990;SDS011;29654;50.784;20.604;2022-09-12T09:42:24;4.40;;;3.03;;
43990;SDS011;29654;50.784;20.604;2022-09-12T09:47:35;2.70;;;2.42;;
43990;SDS011;29654;50.784;20.604;2022-09-12T09:52:39;2.85;;;2.45;;
43990;SDS011;29654;50.784;20.604;2022-09-12T09:57:45;3.00;;;2.20;;
43990;SDS011;29654;50.784;20.604;2022-09-12T10:03:03;2.45;;;2.25;;
43990;SDS011;29654;50.784;20.604;2022-09-12T10:08:28;3.20;;;2.28;;
43990;SDS011;29654;50.784;20.604;2022-09-12T10:13:37;2.80;;;2.20;;
43990;SDS011;29654;50.784;20.604;2022-09-12T10:18:42;5.25;;;2.38;;
43990;SDS011;29654;50.784;20.604;2022-09-12T10:23:45;3.95;;;2.22;;
43990;SDS011;29654;50.784;20.604;2022-09-12T10:28:53;2.35;;;2.15;;
43990;SDS011;29654;50.784;20.604;2022-09-12T10:33:57;2.58;;;2.28;;
43990;SDS011;29654;50.784;20.604;2022-09-12T10:39:03;3.25;;;2.10;;
43990;SDS011;29654;50.784;20.604;2022-09-12T10:44:13;2.45;;;1.70;;
43990;SDS011;29654;50.784;20.604;2022-09-12T10:49:20;3.33;;;2.30;;
43990;SDS011;29654;50.784;20.604;2022-09-12T10:54:29;2.22;;;2.03;;
43990;SDS011;29654;50.784;20.604;2022-09-12T10:59:39;2.00;;;1.80;;
43990;SDS011;29654;50.784;20.604;2022-09-12T11:05:12;2.42;;;1.73;;
43990;SDS011;29654;50.784;20.604;2022-09-12T11:10:33;4.55;;;2.05;;
43990;SDS011;29654;50.784;20.604;2022-09-12T11:15:55;2.92;;;2.03;;
43990;SDS011;29654;50.784;20.604;2022-09-12T11:21:26;3.05;;;1.80;;
43990;SDS011;29654;50.784;20.604;2022-09-12T11:27:02;3.00;;;1.80;;
43990;SDS011;29654;50.784;20.604;2022-09-12T11:32:41;1.95;;;1.38;;
43990;SDS011;29654;50.784;20.604;2022-09-12T11:43:52;1.88;;;1.60;;
43990;SDS011;29654;50.784;20.604;2022-09-12T11:49:09;2.53;;;2.05;;
43990;SDS011;29654;50.784;20.604;2022-09-12T11:54:32;2.42;;;1.75;;
43990;SDS011;29654;50.784;20.604;2022-09-12T11:59:46;1.70;;;1.60;;
43990;SDS011;29654;50.784;20.604;2022-09-12T12:05:01;1.80;;;1.30;;
43990;SDS011;29654;50.784;20.604;2022-09-12T12:10:22;2.10;;;1.83;;
43990;SDS011;29654;50.784;20.604;2022-09-12T12:15:33;3.15;;;1.60;;
43990;SDS011;29654;50.784;20.604;2022-09-12T12:20:40;1.60;;;1.50;;
43990;SDS011;29654;50.784;20.604;2022-09-12T12:25:50;1.42;;;1.23;;
43990;SDS011;29654;50.784;20.604;2022-09-12T12:30:59;3.00;;;1.85;;
43990;SDS011;29654;50.784;20.604;2022-09-12T12:36:11;2.95;;;1.70;;
43990;SDS011;29654;50.784;20.604;2022-09-12T12:41:43;1.95;;;1.50;;
43990;SDS011;29654;50.784;20.604;2022-09-12T12:46:58;1.52;;;1.42;;
43990;SDS011;29654;50.784;20.604;2022-09-12T12:52:18;2.35;;;1.80;;
43990;SDS011;29654;50.784;20.604;2022-09-12T12:57:23;4.25;;;1.90;;
43990;SDS011;29654;50.784;20.604;2022-09-12T13:02:32;1.65;;;1.52;;
43990;SDS011;29654;50.784;20.604;2022-09-12T13:07:39;2.63;;;1.60;;
43990;SDS011;29654;50.784;20.604;2022-09-12T13:12:44;2.63;;;1.50;;
43990;SDS011;29654;50.784;20.604;2022-09-12T13:17:49;2.08;;;1.73;;
43990;SDS011;29654;50.784;20.604;2022-09-12T13:22:54;3.65;;;1.67;;
43990;SDS011;29654;50.784;20.604;2022-09-12T13:28:04;1.73;;;1.40;;
43990;SDS011;29654;50.784;20.604;2022-09-12T13:33:20;1.77;;;1.38;;
43990;SDS011;29654;50.784;20.604;2022-09-12T13:38:35;2.28;;;1.20;;
43990;SDS011;29654;50.784;20.604;2022-09-12T13:43:52;1.90;;;1.30;;
43990;SDS011;29654;50.784;20.604;2022-09-12T13:48:58;1.40;;;1.30;;
43990;SDS011;29654;50.784;20.604;2022-09-12T13:54:14;2.42;;;1.58;;
43990;SDS011;29654;50.784;20.604;2022-09-12T13:59:19;2.22;;;1.48;;
43990;SDS011;29654;50.784;20.604;2022-09-12T14:04:23;1.90;;;1.77;;
43990;SDS011;29654;50.784;20.604;2022-09-12T14:10:00;1.45;;;1.30;;
43990;SDS011;29654;50.784;20.604;2022-09-12T14:15:06;1.52;;;1.05;;
43990;SDS011;29654;50.784;20.604;2022-09-12T14:20:17;2.45;;;1.50;;
43990;SDS011;29654;50.784;20.604;2022-09-12T14:25:24;1.08;;;0.93;;
43990;SDS011;29654;50.784;20.604;2022-09-12T14:30:29;2.65;;;1.38;;
43990;SDS011;29654;50.784;20.604;2022-09-12T14:35:37;2.67;;;1.20;;
43990;SDS011;29654;50.784;20.604;2022-09-12T14:40:46;1.17;;;1.08;;
43990;SDS011;29654;50.784;20.604;2022-09-12T14:45:55;1.95;;;1.33;;
43990;SDS011;29654;50.784;20.604;2022-09-12T14:51:02;2.78;;;1.10;;
43990;SDS011;29654;50.784;20.604;2022-09-12T14:56:09;1.48;;;1.00;;
43990;SDS011;29654;50.784;20.604;2022-09-12T15:01:21;1.60;;;1.38;;
43990;SDS011;29654;50.784;20.604;2022-09-12T15:06:27;1.75;;;1.23;;
43990;SDS011;29654;50.784;20.604;2022-09-12T15:11:33;1.95;;;1.27;;
43990;SDS011;29654;50.784;20.604;2022-09-12T15:16:36;1.90;;;1.38;;
43990;SDS011;29654;50.784;20.604;2022-09-12T15:21:41;2.00;;;1.30;;
43990;SDS011;29654;50.784;20.604;2022-09-12T15:26:47;2.13;;;1.88;;
43990;SDS011;29654;50.784;20.604;2022-09-12T15:31:51;3.25;;;1.55;;
43990;SDS011;29654;50.784;20.604;2022-09-12T15:37:04;2.67;;;1.40;;
43990;SDS011;29654;50.784;20.604;2022-09-12T15:42:13;2.08;;;1.30;;
43990;SDS011;29654;50.784;20.604;2022-09-12T15:47:22;2.85;;;1.40;;
43990;SDS011;29654;50.784;20.604;2022-09-12T15:52:37;2.35;;;1.08;;
43990;SDS011;29654;50.784;20.604;2022-09-12T15:57:42;1.52;;;1.02;;
43990;SDS011;29654;50.784;20.604;2022-09-12T16:02:48;0.95;;;0.85;;
43990;SDS011;29654;50.784;20.604;2022-09-12T16:07:54;1.73;;;1.45;;
43990;SDS011;29654;50.784;20.604;2022-09-12T16:12:59;1.48;;;1.20;;
43990;SDS011;29654;50.784;20.604;2022-09-12T16:18:03;1.30;;;1.05;;
43990;SDS011;29654;50.784;20.604;2022-09-12T16:23:08;1.45;;;1.35;;
43990;SDS011;29654;50.784;20.604;2022-09-12T16:28:15;1.80;;;1.40;;
43990;SDS011;29654;50.784;20.604;2022-09-12T16:33:19;3.65;;;1.50;;
43990;SDS011;29654;50.784;20.604;2022-09-12T16:38:23;3.78;;;2.00;;
43990;SDS011;29654;50.784;20.604;2022-09-12T16:43:29;4.63;;;2.08;;
43990;SDS011;29654;50.784;20.604;2022-09-12T16:48:34;6.18;;;2.10;;
43990;SDS011;29654;50.784;20.604;2022-09-12T16:53:39;2.47;;;1.52;;
43990;SDS011;29654;50.784;20.604;2022-09-12T16:58:48;3.20;;;1.73;;
43990;SDS011;29654;50.784;20.604;2022-09-12T17:04:00;2.28;;;1.20;;
43990;SDS011;29654;50.784;20.604;2022-09-12T17:09:06;1.83;;;1.45;;
43990;SDS011;29654;50.784;20.604;2022-09-12T17:14:22;2.33;;;1.30;;
43990;SDS011;29654;50.784;20.604;2022-09-12T17:19:28;3.47;;;1.20;;
43990;SDS011;29654;50.784;20.604;2022-09-12T17:24:33;5.07;;;1.80;;
43990;SDS011;29654;50.784;20.604;2022-09-12T17:29:40;5.55;;;1.80;;
43990;SDS011;29654;50.784;20.604;2022-09-12T17:34:44;1.65;;;1.50;;
43990;SDS011;29654;50.784;20.604;2022-09-12T17:39:48;3.50;;;1.48;;
43990;SDS011;29654;50.784;20.604;2022-09-12T17:44:54;1.63;;;1.52;;
43990;SDS011;29654;50.784;20.604;2022-09-12T17:49:58;3.63;;;1.80;;
43990;SDS011;29654;50.784;20.604;2022-09-12T17:55:01;3.58;;;2.50;;
43990;SDS011;29654;50.784;20.604;2022-09-12T18:00:08;2.97;;;2.15;;
43990;SDS011;29654;50.784;20.604;2022-09-12T18:05:14;4.32;;;2.50;;
43990;SDS011;29654;50.784;20.604;2022-09-12T18:10:19;2.47;;;1.98;;
43990;SDS011;29654;50.784;20.604;2022-09-12T18:15:25;2.85;;;2.33;;
43990;SDS011;29654;50.784;20.604;2022-09-12T18:20:31;3.78;;;2.00;;
43990;SDS011;29654;50.784;20.604;2022-09-12T18:25:35;2.22;;;2.00;;
43990;SDS011;29654;50.784;20.604;2022-09-12T18:30:41;3.80;;;1.80;;
43990;SDS011;29654;50.784;20.604;2022-09-12T18:35:47;2.33;;;1.88;;
43990;SDS011;29654;50.784;20.604;2022-09-12T18:41:00;2.45;;;2.13;;
43990;SDS011;29654;50.784;20.604;2022-09-12T18:46:08;7.35;;;2.28;;
43990;SDS011;29654;50.784;20.604;2022-09-12T18:51:14;4.55;;;2.22;;
43990;SDS011;29654;50.784;20.604;2022-09-12T18:56:19;3.13;;;2.38;;
43990;SDS011;29654;50.784;20.604;2022-09-12T19:01:27;3.22;;;2.13;;
43990;SDS011;29654;50.784;20.604;2022-09-12T19:06:32;3.45;;;2.03;;
43990;SDS011;29654;50.784;20.604;2022-09-12T19:11:38;2.85;;;1.70;;
43990;SDS011;29654;50.784;20.604;2022-09-12T19:16:49;3.00;;;1.98;;
43990;SDS011;29654;50.784;20.604;2022-09-12T19:21:53;4.30;;;2.17;;
43990;SDS011;29654;50.784;20.604;2022-09-12T19:26:57;3.00;;;2.67;;
43990;SDS011;29654;50.784;20.604;2022-09-12T19:32:02;3.35;;;2.55;;
43990;SDS011;29654;50.784;20.604;2022-09-12T19:37:06;2.60;;;2.08;;
43990;SDS011;29654;50.784;20.604;2022-09-12T19:42:09;4.45;;;2.78;;
43990;SDS011;29654;50.784;20.604;2022-09-12T19:47:14;3.80;;;2.42;;
43990;SDS011;29654;50.784;20.604;2022-09-12T19:52:17;4.15;;;2.90;;
43990;SDS011;29654;50.784;20.604;2022-09-12T19:57:22;4.15;;;2.47;;
43990;SDS011;29654;50.784;20.604;2022-09-12T20:02:28;3.00;;;2.55;;
43990;SDS011;29654;50.784;20.604;2022-09-12T20:07:33;5.10;;;2.67;;
43990;SDS011;29654;50.784;20.604;2022-09-12T20:12:37;3.22;;;2.53;;
43990;SDS011;29654;50.784;20.604;2022-09-12T20:17:43;4.35;;;2.63;;
43990;SDS011;29654;50.784;20.604;2022-09-12T20:22:48;4.13;;;3.03;;
43990;SDS011;29654;50.784;20.604;2022-09-12T20:27:54;4.20;;;3.10;;
43990;SDS011;29654;50.784;20.604;2022-09-12T20:32:58;8.38;;;6.47;;
43990;SDS011;29654;50.784;20.604;2022-09-12T20:38:03;13.70;;;9.00;;
43990;SDS011;29654;50.784;20.604;2022-09-12T20:43:07;14.32;;;11.27;;
43990;SDS011;29654;50.784;20.604;2022-09-12T20:48:12;12.60;;;9.75;;
43990;SDS011;29654;50.784;20.604;2022-09-12T20:53:16;11.05;;;9.35;;
43990;SDS011;29654;50.784;20.604;2022-09-12T20:58:20;10.70;;;8.88;;
43990;SDS011;29654;50.784;20.604;2022-09-12T21:03:26;13.15;;;9.27;;
43990;SDS011;29654;50.784;20.604;2022-09-12T21:08:31;12.15;;;8.68;;
43990;SDS011;29654;50.784;20.604;2022-09-12T21:13:37;10.43;;;8.57;;
43990;SDS011;29654;50.784;20.604;2022-09-12T21:18:42;10.65;;;7.85;;
43990;SDS011;29654;50.784;20.604;2022-09-12T21:23:46;9.95;;;8.52;;
43990;SDS011;29654;50.784;20.604;2022-09-12T21:28:50;11.23;;;8.35;;
43990;SDS011;29654;50.784;20.604;2022-09-12T21:33:54;8.90;;;6.93;;
43990;SDS011;29654;50.784;20.604;2022-09-12T21:38:57;6.63;;;4.43;;
43990;SDS011;29654;50.784;20.604;2022-09-12T21:44:01;6.50;;;4.78;;
43990;SDS011;29654;50.784;20.604;2022-09-12T21:49:05;6.72;;;3.90;;
43990;SDS011;29654;50.784;20.604;2022-09-12T21:54:09;6.97;;;3.70;;
43990;SDS011;29654;50.784;20.604;2022-09-12T21:59:13;4.63;;;3.13;;
43990;SDS011;29654;50.784;20.604;2022-09-12T22:04:17;3.83;;;2.92;;
43990;SDS011;29654;50.784;20.604;2022-09-12T22:09:20;4.53;;;3.08;;
43990;SDS011;29654;50.784;20.604;2022-09-12T22:14:25;3.65;;;2.83;;
43990;SDS011;29654;50.784;20.604;2022-09-12T22:19:29;5.93;;;3.15;;
43990;SDS011;29654;50.784;20.604;2022-09-12T22:24:32;5.63;;;2.92;;
43990;SDS011;29654;50.784;20.604;2022-09-12T22:29:35;4.88;;;3.28;;
43990;SDS011;29654;50.784;20.604;2022-09-12T22:34:40;6.15;;;3.90;;
43990;SDS011;29654;50.784;20.604;2022-09-12T22:39:43;5.70;;;3.72;;
43990;SDS011;29654;50.784;20.604;2022-09-12T22:44:46;4.18;;;2.80;;
43990;SDS011;29654;50.784;20.604;2022-09-12T22:49:51;7.88;;;3.28;;
43990;SDS011;29654;50.784;20.604;2022-09-12T22:54:55;6.80;;;3.50;;
43990;SDS011;29654;50.784;20.604;2022-09-12T22:59:58;4.90;;;3.75;;
43990;SDS011;29654;50.784;20.604;2022-09-12T23:05:02;4.90;;;3.25;;
43990;SDS011;29654;50.784;20.604;2022-09-12T23:10:06;4.20;;;3.42;;
43990;SDS011;29654;50.784;20.604;2022-09-12T23:15:10;3.88;;;3.30;;
43990;SDS011;29654;50.784;20.604;2022-09-12T23:20:14;5.72;;;3.58;;
43990;SDS011;29654;50.784;20.604;2022-09-12T23:25:18;4.18;;;3.00;;
43990;SDS011;29654;50.784;20.604;2022-09-12T23:30:22;4.20;;;3.38;;
43990;SDS011;29654;50.784;20.604;2022-09-12T23:35:27;5.32;;;3.22;;
43990;SDS011;29654;50.784;20.604;2022-09-12T23:40:30;4.75;;;3.53;;
43990;SDS011;29654;50.784;20.604;2022-09-12T23:45:34;4.22;;;3.33;;
43990;SDS011;29654;50.784;20.604;2022-09-12T23:50:38;5.78;;;3.50;;
43990;SDS011;29654;50.784;20.604;2022-09-12T23:55:41;5.38;;;4.03;;
